createdAt,value
2023-05-07T00:00:47.295Z,100888.19
2023-05-07T00:03:34.962Z,100880.38
2023-05-07T00:06:20.096Z,100877.75
2023-05-07T00:09:05.434Z,100886.44
2023-05-07T00:11:50.760Z,100891.69
2023-05-07T00:14:36.636Z,100897.75
2023-05-07T00:17:21.523Z,100906.44
2023-05-07T00:20:08.203Z,100896.00
2023-05-07T00:22:53.599Z,100907.28
2023-05-07T00:25:38.404Z,100913.34
2023-05-07T00:28:23.326Z,100920.22
2023-05-07T00:31:08.599Z,100912.41
2023-05-07T00:33:54.080Z,100921.09
2023-05-07T00:36:38.886Z,100908.91
2023-05-07T00:39:23.718Z,100919.31
2023-05-07T00:42:08.678Z,100921.09
2023-05-07T00:44:53.954Z,100914.16
2023-05-07T00:47:39.072Z,100917.63
2023-05-07T00:50:24.427Z,100918.44
2023-05-07T00:53:09.852Z,100920.19
2023-05-07T00:55:55.806Z,100913.19
2023-05-07T00:58:41.409Z,100933.19
2023-05-07T01:01:26.534Z,100921.91
2023-05-07T01:04:11.543Z,100925.34
2023-05-07T01:06:59.110Z,100938.34
2023-05-07T01:09:45.920Z,100933.19
2023-05-07T01:12:31.802Z,100936.63
2023-05-07T01:15:18.430Z,100937.50
2023-05-07T01:18:03.908Z,100940.09
2023-05-07T01:20:48.994Z,100930.56
2023-05-07T01:23:34.789Z,100925.38
2023-05-07T01:26:21.185Z,100926.19
2023-05-07T01:29:06.350Z,100926.16
2023-05-07T01:31:53.324Z,100928.78
2023-05-07T01:34:38.477Z,100930.47
2023-05-07T01:37:24.600Z,100923.50
2023-05-07T01:40:10.035Z,100914.88
2023-05-07T01:42:55.648Z,100922.69
2023-05-07T01:45:41.686Z,100925.28
2023-05-07T01:48:27.110Z,100928.72
2023-05-07T01:51:12.900Z,100930.44
2023-05-07T01:53:57.869Z,100935.63
2023-05-07T01:56:42.761Z,100936.41
2023-05-07T01:59:28.350Z,100938.97
2023-05-07T02:02:13.828Z,100944.16
2023-05-07T02:05:00.435Z,100940.59
2023-05-07T02:07:45.576Z,100938.06
2023-05-07T02:10:30.531Z,100944.09
2023-05-07T02:13:16.249Z,100943.38
2023-05-07T02:16:01.965Z,100949.19
2023-05-07T02:18:47.321Z,100950.88
2023-05-07T02:21:32.179Z,100952.63
2023-05-07T02:24:17.090Z,100953.53
2023-05-07T02:27:02.656Z,100949.28
2023-05-07T02:29:47.557Z,100942.28
2023-05-07T02:32:32.850Z,100947.41
2023-05-07T02:35:18.339Z,100950.84
2023-05-07T02:38:03.522Z,100943.00
2023-05-07T02:40:48.444Z,100952.66
2023-05-07T02:43:33.869Z,100956.00
2023-05-07T02:46:19.242Z,100955.09
2023-05-07T02:49:04.585Z,100955.13
2023-05-07T02:51:49.444Z,100960.38
2023-05-07T02:54:34.779Z,100970.69
2023-05-07T02:57:19.911Z,100967.25
2023-05-07T03:00:16.614Z,100966.31
2023-05-07T03:03:02.019Z,100967.22
2023-05-07T03:05:47.542Z,100974.16
2023-05-07T03:08:33.291Z,100964.50
2023-05-07T03:11:18.788Z,100967.94
2023-05-07T03:14:03.801Z,100964.47
2023-05-07T03:16:50.702Z,100960.94
2023-05-07T03:19:35.774Z,100960.06
2023-05-07T03:22:21.227Z,100955.56
2023-05-07T03:25:07.813Z,100956.47
2023-05-07T03:27:53.083Z,100959.19
2023-05-07T03:30:38.039Z,100946.97
2023-05-07T03:33:23.474Z,100949.66
2023-05-07T03:36:08.995Z,100946.97
2023-05-07T03:38:54.101Z,100946.97
2023-05-07T03:41:39.177Z,100957.25
2023-05-07T03:44:24.910Z,100958.28
2023-05-07T03:47:10.076Z,100964.31
2023-05-07T03:49:54.946Z,100965.13
2023-05-07T03:52:39.758Z,100972.06
2023-05-07T03:55:24.659Z,100961.81
2023-05-07T03:58:09.926Z,100965.94
2023-05-07T04:00:55.262Z,100972.75
2023-05-07T04:03:40.535Z,100990.16
2023-05-07T04:06:25.601Z,100991.91
2023-05-07T04:09:10.523Z,100984.09
2023-05-07T04:11:55.574Z,100984.13
2023-05-07T04:14:41.079Z,100993.72
2023-05-07T04:17:26.239Z,100991.13
2023-05-07T04:20:15.273Z,101009.16
2023-05-07T04:23:00.417Z,101010.88
2023-05-07T04:25:45.899Z,101014.47
2023-05-07T04:28:31.440Z,101011.03
2023-05-07T04:31:17.001Z,101009.16
2023-05-07T04:34:01.935Z,101008.44
2023-05-07T04:36:47.417Z,101003.31
2023-05-07T04:39:33.597Z,100996.16
2023-05-07T04:42:19.293Z,101002.06
2023-05-07T04:45:05.560Z,101004.00
2023-05-07T04:47:50.931Z,100999.59
2023-05-07T04:50:36.328Z,100997.88
2023-05-07T04:53:21.544Z,100994.50
2023-05-07T04:56:07.179Z,100999.59
2023-05-07T04:58:52.379Z,100991.81
2023-05-07T05:01:38.202Z,100997.84
2023-05-07T05:04:23.655Z,100999.50
2023-05-07T05:07:08.556Z,101008.16
2023-05-07T05:09:54.039Z,101018.72
2023-05-07T05:12:39.335Z,101017.09
2023-05-07T05:15:24.568Z,101015.50
2023-05-07T05:18:09.748Z,101002.38
2023-05-07T05:20:54.982Z,100997.94
2023-05-07T05:23:40.628Z,101001.50
2023-05-07T05:26:26.053Z,101005.72
2023-05-07T05:29:11.556Z,101004.84
2023-05-07T05:31:57.116Z,101003.00
2023-05-07T05:34:45.334Z,101009.91
2023-05-07T05:37:30.748Z,101005.63
2023-05-07T05:40:16.269Z,101013.59
2023-05-07T05:43:01.687Z,101018.91
2023-05-07T05:45:47.372Z,101012.06
2023-05-07T05:48:32.632Z,101009.28
2023-05-07T05:51:18.173Z,101007.50
2023-05-07T05:54:03.579Z,101011.00
2023-05-07T05:56:49.794Z,101009.28
2023-05-07T05:59:35.163Z,101022.44
2023-05-07T06:02:20.558Z,101023.25
2023-05-07T06:05:06.642Z,101019.91
2023-05-07T06:07:51.971Z,101021.53
2023-05-07T06:10:40.463Z,101018.91
2023-05-07T06:13:26.788Z,101012.78
2023-05-07T06:16:12.228Z,101016.31
2023-05-07T06:18:57.541Z,101010.38
2023-05-07T06:21:42.627Z,101030.41
2023-05-07T06:24:30.539Z,101017.09
2023-05-07T06:27:15.614Z,101021.44
2023-05-07T06:30:01.099Z,101016.31
2023-05-07T06:32:45.913Z,101027.63
2023-05-07T06:35:31.265Z,101022.31
2023-05-07T06:38:16.513Z,101030.06
2023-05-07T06:41:01.887Z,101031.97
2023-05-07T06:43:47.281Z,101033.75
2023-05-07T06:46:32.345Z,101032.06
2023-05-07T06:49:18.039Z,101018.38
2023-05-07T06:52:03.095Z,101022.63
2023-05-07T06:54:48.518Z,101025.22
2023-05-07T06:57:33.265Z,101020.16
2023-05-07T07:00:18.641Z,101027.88
2023-05-07T07:03:03.758Z,101026.19
2023-05-07T07:05:52.794Z,101029.84
2023-05-07T07:08:37.708Z,101030.84
2023-05-07T07:11:22.439Z,101020.53
2023-05-07T07:14:07.440Z,101032.59
2023-05-07T07:16:52.495Z,101024.72
2023-05-07T07:19:37.539Z,101023.06
2023-05-07T07:22:22.475Z,101028.06
2023-05-07T07:25:07.762Z,101031.66
2023-05-07T07:27:53.066Z,101028.22
2023-05-07T07:30:38.593Z,101026.53
2023-05-07T07:33:24.037Z,101027.44
2023-05-07T07:36:09.591Z,101027.53
2023-05-07T07:38:55.273Z,101028.44
2023-05-07T07:41:40.783Z,101012.63
2023-05-07T07:44:26.595Z,101025.69
2023-05-07T07:47:12.223Z,101031.00
2023-05-07T07:49:57.556Z,101024.81
2023-05-07T07:52:42.375Z,101027.63
2023-05-07T07:55:27.681Z,101024.19
2023-05-07T07:58:12.669Z,101022.31
2023-05-07T08:00:57.493Z,101029.31
2023-05-07T08:03:43.076Z,101020.75
2023-05-07T08:06:28.262Z,101017.19
2023-05-07T08:09:13.904Z,101008.59
2023-05-07T08:11:59.017Z,101010.34
2023-05-07T08:14:44.118Z,101015.72
2023-05-07T08:17:29.520Z,101012.31
2023-05-07T08:20:14.986Z,101007.94
2023-05-07T08:22:59.996Z,101000.22
2023-05-07T08:25:45.379Z,100994.22
2023-05-07T08:28:30.302Z,100992.53
2023-05-07T08:31:15.588Z,100990.84
2023-05-07T08:34:00.903Z,100980.41
2023-05-07T08:36:45.497Z,100973.47
2023-05-07T08:39:30.868Z,100984.78
2023-05-07T08:42:17.895Z,100969.19
2023-05-07T08:45:03.836Z,100950.06
2023-05-07T08:47:54.659Z,100949.16
2023-05-07T08:50:39.793Z,100957.88
2023-05-07T08:53:25.494Z,100961.34
2023-05-07T08:56:10.824Z,100952.63
2023-05-07T08:58:55.883Z,100950.03
2023-05-07T09:01:41.090Z,100955.19
2023-05-07T09:04:26.325Z,100951.72
2023-05-07T09:07:11.699Z,100946.47
2023-05-07T09:09:56.981Z,100937.72
2023-05-07T09:12:42.218Z,100932.47
2023-05-07T09:15:29.214Z,100918.34
2023-05-07T09:18:16.689Z,100912.31
2023-05-07T09:21:02.414Z,100932.06
2023-05-07T09:23:55.763Z,100906.84
2023-05-07T09:26:42.025Z,100907.06
2023-05-07T09:29:28.217Z,100932.16
2023-05-07T09:32:13.591Z,100914.00
2023-05-07T09:34:59.449Z,100918.41
2023-05-07T09:37:44.749Z,100950.63
2023-05-07T09:40:31.510Z,100964.66
2023-05-07T09:43:16.812Z,100954.09
2023-05-07T09:46:04.467Z,100934.91
2023-05-07T09:48:53.278Z,100931.50
2023-05-07T09:51:44.170Z,100924.44
2023-05-07T09:54:29.999Z,100933.94
2023-05-07T09:57:16.324Z,100930.56
2023-05-07T10:00:03.371Z,100937.44
2023-05-07T10:02:53.698Z,100960.28
2023-05-07T10:05:43.070Z,100958.53
2023-05-07T10:08:28.672Z,100974.16
2023-05-07T10:11:14.895Z,100970.78
2023-05-07T10:14:01.412Z,100995.94
2023-05-07T10:16:48.782Z,100958.44
2023-05-07T10:19:36.354Z,100947.06
2023-05-07T10:22:23.095Z,100946.09
2023-05-07T10:25:17.778Z,100947.69
2023-05-07T10:28:08.337Z,100939.81
2023-05-07T10:30:53.786Z,100936.09
2023-05-07T10:33:40.482Z,100941.09
2023-05-07T10:36:25.596Z,100914.94
2023-05-07T10:39:11.028Z,100927.00
2023-05-07T10:41:56.308Z,100928.91
2023-05-07T10:44:41.772Z,100918.34
2023-05-07T10:47:26.884Z,100929.63
2023-05-07T10:50:12.448Z,100955.44
2023-05-07T10:53:27.219Z,100911.38
2023-05-07T10:56:18.511Z,100940.97
2023-05-07T10:59:22.446Z,100931.28
2023-05-07T11:02:08.452Z,100927.78
2023-05-07T11:05:35.766Z,100937.94
2023-05-07T11:08:22.600Z,100919.09
2023-05-07T11:11:08.055Z,100949.38
2023-05-07T11:13:53.492Z,100947.03
2023-05-07T11:16:38.855Z,100890.59
2023-05-07T11:19:56.105Z,100921.03
2023-05-07T11:22:41.665Z,100910.81
2023-05-07T11:25:27.373Z,100914.16
2023-05-07T11:28:13.798Z,100913.78
2023-05-07T11:30:59.785Z,100903.75
2023-05-07T11:33:45.674Z,100894.19
2023-05-07T11:36:33.065Z,100899.31
2023-05-07T11:39:31.926Z,100879.81
2023-05-07T11:42:31.820Z,100863.56
2023-05-07T11:45:24.987Z,100874.94
2023-05-07T11:48:10.062Z,100878.56
2023-05-07T11:51:02.478Z,100857.63
2023-05-07T11:53:47.448Z,100854.84
2023-05-07T11:56:35.468Z,100850.09
2023-05-07T11:59:20.625Z,100854.59
2023-05-07T12:02:05.551Z,100861.31
2023-05-07T12:04:50.988Z,100857.41
2023-05-07T12:07:37.084Z,100840.63
2023-05-07T12:10:22.587Z,100851.63
2023-05-07T12:13:21.631Z,100873.03
2023-05-07T12:16:07.560Z,100870.25
2023-05-07T12:18:53.546Z,100874.84
2023-05-07T12:21:39.733Z,100857.75
2023-05-07T12:24:24.692Z,100837.28
2023-05-07T12:27:10.281Z,100838.84
2023-05-07T12:29:58.695Z,100835.53
2023-05-07T12:32:46.152Z,100867.53
2023-05-07T12:35:32.441Z,100845.53
2023-05-07T12:38:18.938Z,100866.19
2023-05-07T12:41:04.599Z,100873.41
2023-05-07T12:43:49.514Z,100875.91
2023-05-07T12:46:39.719Z,100858.56
2023-05-07T12:49:25.453Z,100867.56
2023-05-07T12:52:12.223Z,100849.00
2023-05-07T12:54:57.649Z,100849.13
2023-05-07T12:57:44.628Z,100842.81
2023-05-07T13:00:38.097Z,100847.69
2023-05-07T13:03:36.612Z,100852.94
2023-05-07T13:06:21.916Z,100852.34
2023-05-07T13:09:09.758Z,100845.06
2023-05-07T13:11:55.245Z,100851.34
2023-05-07T13:14:40.424Z,100810.00
2023-05-07T13:17:25.837Z,100834.00
2023-05-07T13:20:12.005Z,100841.72
2023-05-07T13:22:57.150Z,100836.31
2023-05-07T13:25:42.106Z,100870.16
2023-05-07T13:28:27.383Z,100865.06
2023-05-07T13:31:12.905Z,100880.91
2023-05-07T13:33:58.296Z,100870.78
2023-05-07T13:36:43.115Z,100897.31
2023-05-07T13:39:28.051Z,100897.25
2023-05-07T13:42:13.597Z,100863.59
2023-05-07T13:45:00.856Z,100856.00
2023-05-07T13:47:47.128Z,100864.00
2023-05-07T13:50:32.448Z,100857.19
2023-05-07T13:53:19.208Z,100840.53
2023-05-07T13:56:04.859Z,100860.88
2023-05-07T13:58:59.600Z,100863.63
2023-05-07T14:01:45.702Z,100857.19
2023-05-07T14:04:31.850Z,100875.44
2023-05-07T14:07:17.065Z,100867.00
2023-05-07T14:10:02.278Z,100858.44
2023-05-07T14:12:48.526Z,100866.47
2023-05-07T14:15:33.324Z,100876.38
2023-05-07T14:18:18.803Z,100861.84
2023-05-07T14:21:05.577Z,100876.09
2023-05-07T14:23:51.224Z,100876.00
2023-05-07T14:26:36.632Z,100910.34
2023-05-07T14:29:24.048Z,100907.53
2023-05-07T14:32:09.749Z,100896.84
2023-05-07T14:34:55.349Z,100901.72
2023-05-07T14:37:40.206Z,100871.50
2023-05-07T14:40:25.182Z,100867.72
2023-05-07T14:43:10.398Z,100866.31
2023-05-07T14:45:55.715Z,100891.88
2023-05-07T14:48:40.889Z,100873.22
2023-05-07T14:51:26.180Z,100887.31
2023-05-07T14:54:11.344Z,100890.00
2023-05-07T14:56:56.403Z,100907.03
2023-05-07T14:59:41.823Z,100905.16
2023-05-07T15:02:27.245Z,100895.34
2023-05-07T15:05:13.104Z,100902.34
2023-05-07T15:07:58.247Z,100922.47
2023-05-07T15:10:43.564Z,100920.13
2023-05-07T15:13:28.480Z,100931.75
2023-05-07T15:16:14.118Z,100943.66
2023-05-07T15:18:59.283Z,100927.66
2023-05-07T15:21:44.812Z,100920.28
2023-05-07T15:24:31.097Z,100922.13
2023-05-07T15:27:16.364Z,100930.91
2023-05-07T15:30:01.463Z,100915.53
2023-05-07T15:32:47.011Z,100917.56
2023-05-07T15:35:32.238Z,100936.84
2023-05-07T15:38:17.769Z,100933.13
2023-05-07T15:41:03.665Z,100939.22
2023-05-07T15:43:51.434Z,100940.47
2023-05-07T15:46:36.279Z,100938.91
2023-05-07T15:49:21.364Z,100950.25
2023-05-07T15:52:06.539Z,100951.41
2023-05-07T15:54:52.052Z,100964.47
2023-05-07T15:57:37.296Z,100941.94
2023-05-07T16:00:22.812Z,100957.56
2023-05-07T16:03:08.194Z,100965.16
2023-05-07T16:05:53.496Z,100961.66
2023-05-07T16:08:38.677Z,100972.91
2023-05-07T16:11:23.714Z,100963.41
2023-05-07T16:14:08.898Z,100962.13
2023-05-07T16:16:56.729Z,100977.75
2023-05-07T16:19:42.188Z,100976.91
2023-05-07T16:22:27.627Z,100972.69
2023-05-07T16:25:12.807Z,100969.13
2023-05-07T16:27:58.088Z,100973.38
2023-05-07T16:30:43.654Z,100974.19
2023-05-07T16:33:28.846Z,100969.91
2023-05-07T16:36:14.451Z,100971.75
2023-05-07T16:38:59.935Z,100976.84
2023-05-07T16:41:45.764Z,100976.13
2023-05-07T16:44:31.062Z,100977.03
2023-05-07T16:47:16.053Z,100965.84
2023-05-07T16:50:01.425Z,100971.28
2023-05-07T16:52:46.725Z,100984.34
2023-05-07T16:55:31.623Z,100979.31
2023-05-07T16:58:16.502Z,100986.19
2023-05-07T17:01:02.065Z,100968.88
2023-05-07T17:03:47.504Z,100974.97
2023-05-07T17:06:32.657Z,100976.84
2023-05-07T17:09:18.124Z,100993.34
2023-05-07T17:12:03.058Z,100983.03
2023-05-07T17:14:48.241Z,100990.97
2023-05-07T17:17:33.799Z,100996.97
2023-05-07T17:20:18.763Z,101003.03
2023-05-07T17:23:03.656Z,101017.09
2023-05-07T17:25:48.372Z,101011.91
2023-05-07T17:28:33.414Z,101021.50
2023-05-07T17:31:18.620Z,101015.59
2023-05-07T17:34:03.857Z,101019.19
2023-05-07T17:36:49.298Z,101032.28
2023-05-07T17:39:34.722Z,101043.63
2023-05-07T17:42:20.552Z,101045.34
2023-05-07T17:45:07.083Z,101051.50
2023-05-07T17:47:52.441Z,101055.91
2023-05-07T17:50:37.510Z,101072.44
2023-05-07T17:53:22.802Z,101075.03
2023-05-07T17:56:08.071Z,101081.13
2023-05-07T17:58:59.168Z,101089.03
2023-05-07T18:01:44.792Z,101089.84
2023-05-07T18:04:30.058Z,101086.41
2023-05-07T18:07:15.365Z,101089.91
2023-05-07T18:10:00.856Z,101101.25
2023-05-07T18:12:46.216Z,101101.25
2023-05-07T18:15:31.635Z,101112.59
2023-05-07T18:18:16.830Z,101089.09
2023-05-07T18:21:02.301Z,101077.84
2023-05-07T18:23:48.641Z,101092.63
2023-05-07T18:26:33.938Z,101098.75
2023-05-07T18:29:19.368Z,101106.59
2023-05-07T18:32:07.916Z,101108.38
2023-05-07T18:34:53.071Z,101119.66
2023-05-07T18:37:38.535Z,101116.19
2023-05-07T18:40:23.866Z,101121.41
2023-05-07T18:43:08.769Z,101122.31
2023-05-07T18:45:54.281Z,101128.41
2023-05-07T18:48:39.832Z,101130.13
2023-05-07T18:51:25.277Z,101129.28
2023-05-07T18:54:10.806Z,101140.59
2023-05-07T18:56:56.182Z,101144.94
2023-05-07T18:59:41.522Z,101148.41
2023-05-07T19:02:26.964Z,101132.72
2023-05-07T19:05:12.319Z,101132.69
2023-05-07T19:07:57.615Z,101130.94
2023-05-07T19:10:42.505Z,101122.22
2023-05-07T19:13:27.644Z,101126.56
2023-05-07T19:16:13.495Z,101129.13
2023-05-07T19:18:58.870Z,101127.34
2023-05-07T19:21:44.275Z,101126.53
2023-05-07T19:24:30.020Z,101129.06
2023-05-07T19:27:15.388Z,101136.91
2023-05-07T19:30:01.027Z,101136.88
2023-05-07T19:32:46.279Z,101141.25
2023-05-07T19:35:31.450Z,101146.44
2023-05-07T19:38:16.541Z,101143.81
2023-05-07T19:41:01.996Z,101149.84
2023-05-07T19:43:47.541Z,101154.19
2023-05-07T19:46:32.842Z,101163.72
2023-05-07T19:49:18.336Z,101165.47
2023-05-07T19:52:03.729Z,101177.66
2023-05-07T19:54:48.809Z,101173.25
2023-05-07T19:57:34.390Z,101182.81
2023-05-07T20:00:19.355Z,101187.09
2023-05-07T20:03:04.544Z,101208.00
2023-05-07T20:05:49.555Z,101211.41
2023-05-07T20:08:34.979Z,101205.31
2023-05-07T20:11:20.291Z,101196.63
2023-05-07T20:14:05.699Z,101208.69
2023-05-07T20:16:50.848Z,101206.13
2023-05-07T20:19:36.262Z,101198.31
2023-05-07T20:22:21.601Z,101203.44
2023-05-07T20:25:07.245Z,101208.59
2023-05-07T20:27:52.822Z,101225.81
2023-05-07T20:30:38.301Z,101238.78
2023-05-07T20:33:23.654Z,101250.94
2023-05-07T20:36:09.291Z,101258.72
2023-05-07T20:38:55.221Z,101266.31
2023-05-07T20:41:40.235Z,101264.50
2023-05-07T20:44:25.913Z,101261.13
2023-05-07T20:47:11.180Z,101278.53
2023-05-07T20:49:56.140Z,101269.66
2023-05-07T20:52:41.941Z,101263.44
2023-05-07T20:55:27.368Z,101272.88
2023-05-07T20:58:12.900Z,101286.66
2023-05-07T21:00:58.130Z,101282.13
2023-05-07T21:03:43.531Z,101290.91
2023-05-07T21:06:28.397Z,101297.88
2023-05-07T21:09:13.842Z,101302.09
2023-05-07T21:11:59.247Z,101302.13
2023-05-07T21:14:44.319Z,101292.41
2023-05-07T21:17:29.331Z,101289.69
2023-05-07T21:20:15.126Z,101294.88
2023-05-07T21:23:00.531Z,101299.94
2023-05-07T21:25:45.824Z,101304.34
2023-05-07T21:28:30.907Z,101316.25
2023-05-07T21:31:16.241Z,101316.19
2023-05-07T21:34:01.349Z,101324.03
2023-05-07T21:36:46.314Z,101315.34
2023-05-07T21:39:31.852Z,101305.56
2023-05-07T21:42:17.140Z,101308.88
2023-05-07T21:45:05.123Z,101312.97
2023-05-07T21:47:50.231Z,101310.13
2023-05-07T21:50:35.574Z,101313.81
2023-05-07T21:53:20.328Z,101316.41
2023-05-07T21:56:06.019Z,101320.59
2023-05-07T21:58:51.292Z,101323.91
2023-05-07T22:01:36.567Z,101322.00
2023-05-07T22:04:22.048Z,101321.28
2023-05-07T22:07:07.292Z,101323.00
2023-05-07T22:09:52.841Z,101328.84
2023-05-07T22:12:38.159Z,101322.91
2023-05-07T22:15:23.554Z,101315.81
2023-05-07T22:18:08.935Z,101326.13
2023-05-07T22:20:53.725Z,101320.91
2023-05-07T22:23:38.632Z,101330.31
2023-05-07T22:26:23.562Z,101326.69
2023-05-07T22:29:08.429Z,101336.81
2023-05-07T22:31:53.732Z,101338.59
2023-05-07T22:34:39.124Z,101336.88
2023-05-07T22:37:26.722Z,101337.09
2023-05-07T22:40:12.126Z,101332.63
2023-05-07T22:42:57.639Z,101329.19
2023-05-07T22:45:43.187Z,101340.22
2023-05-07T22:48:29.158Z,101326.91
2023-05-07T22:51:14.701Z,101338.31
2023-05-07T22:53:59.482Z,101335.44
2023-05-07T22:56:44.952Z,101340.47
2023-05-07T22:59:30.648Z,101355.19
2023-05-07T23:02:15.638Z,101351.44
2023-05-07T23:05:00.730Z,101358.34
2023-05-07T23:07:45.785Z,101363.47
2023-05-07T23:10:30.623Z,101360.84
2023-05-07T23:13:15.395Z,101353.81
2023-05-07T23:16:00.753Z,101363.31
2023-05-07T23:18:45.515Z,101358.06
2023-05-07T23:21:30.835Z,101357.25
2023-05-07T23:24:15.617Z,101358.91
2023-05-07T23:27:04.150Z,101351.94
2023-05-07T23:29:49.684Z,101353.72
2023-05-07T23:32:34.967Z,101344.97
2023-05-07T23:35:19.971Z,101344.28
2023-05-07T23:38:05.301Z,101348.47
2023-05-07T23:40:55.354Z,101350.28
2023-05-07T23:43:42.160Z,101341.50
2023-05-07T23:46:27.552Z,101338.78
2023-05-07T23:49:12.855Z,101347.97
2023-05-07T23:51:58.389Z,101353.34
2023-05-07T23:54:43.941Z,101355.94
2023-05-07T23:57:29.050Z,101351.53
